sensor_id;sensor_type;location;lat;lon;timestamp;temperature;humidity
6333;DHT22;3199;49.102;8.856;2023-04-03T00:00:58;4.60;99.90
6333;DHT22;3199;49.102;8.856;2023-04-03T00:03:24;4.60;99.90
6333;DHT22;3199;49.102;8.856;2023-04-03T00:05:49;4.60;99.90
6333;DHT22;3199;49.102;8.856;2023-04-03T00:08:15;4.60;99.90
6333;DHT22;3199;49.102;8.856;2023-04-03T00:10:41;4.60;99.90
6333;DHT22;3199;49.102;8.856;2023-04-03T00:13:07;4.50;99.90
6333;DHT22;3199;49.102;8.856;2023-04-03T00:15:33;4.50;99.90
6333;DHT22;3199;49.102;8.856;2023-04-03T00:17:59;4.50;99.90
6333;DHT22;3199;49.102;8.856;2023-04-03T00:20:25;4.50;99.90
6333;DHT22;3199;49.102;8.856;2023-04-03T00:22:52;4.50;99.90
6333;DHT22;3199;49.102;8.856;2023-04-03T00:25:18;4.50;99.90
6333;DHT22;3199;49.102;8.856;2023-04-03T00:27:44;4.50;99.90
6333;DHT22;3199;49.102;8.856;2023-04-03T00:30:12;4.50;99.90
6333;DHT22;3199;49.102;8.856;2023-04-03T00:32:38;4.40;99.90
6333;DHT22;3199;49.102;8.856;2023-04-03T00:35:04;4.40;99.90
6333;DHT22;3199;49.102;8.856;2023-04-03T00:37:30;4.40;99.90
6333;DHT22;3199;49.102;8.856;2023-04-03T00:39:56;4.40;99.90
6333;DHT22;3199;49.102;8.856;2023-04-03T00:42:21;4.30;99.90
6333;DHT22;3199;49.102;8.856;2023-04-03T00:47:15;4.30;99.90
6333;DHT22;3199;49.102;8.856;2023-04-03T00:49:42;4.30;99.90
6333;DHT22;3199;49.102;8.856;2023-04-03T00:52:11;4.20;99.90
6333;DHT22;3199;49.102;8.856;2023-04-03T00:54:40;4.20;99.90
6333;DHT22;3199;49.102;8.856;2023-04-03T00:57:07;4.20;99.90
6333;DHT22;3199;49.102;8.856;2023-04-03T00:59:37;4.20;99.90
6333;DHT22;3199;49.102;8.856;2023-04-03T01:02:04;4.10;99.90
6333;DHT22;3199;49.102;8.856;2023-04-03T01:04:35;4.10;99.90
6333;DHT22;3199;49.102;8.856;2023-04-03T01:07:04;4.10;99.90
6333;DHT22;3199;49.102;8.856;2023-04-03T01:09:31;4.10;99.90
6333;DHT22;3199;49.102;8.856;2023-04-03T01:12:25;4.10;99.90
6333;DHT22;3199;49.102;8.856;2023-04-03T01:14:53;4.00;99.90
6333;DHT22;3199;49.102;8.856;2023-04-03T01:25:33;3.90;99.90
6333;DHT22;3199;49.102;8.856;2023-04-03T01:27:59;3.90;99.90
6333;DHT22;3199;49.102;8.856;2023-04-03T01:30:32;3.80;99.90
6333;DHT22;3199;49.102;8.856;2023-04-03T01:32:57;3.80;99.90
6333;DHT22;3199;49.102;8.856;2023-04-03T01:35:23;3.80;99.90
6333;DHT22;3199;49.102;8.856;2023-04-03T01:37:48;3.70;99.90
6333;DHT22;3199;49.102;8.856;2023-04-03T01:40:15;3.70;99.90
6333;DHT22;3199;49.102;8.856;2023-04-03T01:42:40;3.70;99.90
6333;DHT22;3199;49.102;8.856;2023-04-03T01:45:06;3.70;99.90
6333;DHT22;3199;49.102;8.856;2023-04-03T01:47:32;3.60;99.90
6333;DHT22;3199;49.102;8.856;2023-04-03T01:49:57;3.60;99.90
6333;DHT22;3199;49.102;8.856;2023-04-03T01:52:23;3.60;99.90
6333;DHT22;3199;49.102;8.856;2023-04-03T01:54:48;3.60;99.90
6333;DHT22;3199;49.102;8.856;2023-04-03T01:57:14;3.60;99.90
6333;DHT22;3199;49.102;8.856;2023-04-03T01:59:40;3.60;99.90
6333;DHT22;3199;49.102;8.856;2023-04-03T02:02:06;3.60;99.90
6333;DHT22;3199;49.102;8.856;2023-04-03T02:04:32;3.50;99.90
6333;DHT22;3199;49.102;8.856;2023-04-03T02:06:57;3.50;99.90
6333;DHT22;3199;49.102;8.856;2023-04-03T02:09:23;3.60;99.90
6333;DHT22;3199;49.102;8.856;2023-04-03T02:11:49;3.50;99.90
6333;DHT22;3199;49.102;8.856;2023-04-03T02:14:14;3.50;99.90
6333;DHT22;3199;49.102;8.856;2023-04-03T02:16:40;3.50;99.90
6333;DHT22;3199;49.102;8.856;2023-04-03T02:19:06;3.50;99.90
6333;DHT22;3199;49.102;8.856;2023-04-03T02:21:32;3.50;99.90
6333;DHT22;3199;49.102;8.856;2023-04-03T02:23:57;3.50;99.90
6333;DHT22;3199;49.102;8.856;2023-04-03T02:26:23;3.50;99.90
6333;DHT22;3199;49.102;8.856;2023-04-03T02:28:48;3.50;99.90
6333;DHT22;3199;49.102;8.856;2023-04-03T02:31:16;3.50;99.90
6333;DHT22;3199;49.102;8.856;2023-04-03T02:33:42;3.60;99.90
6333;DHT22;3199;49.102;8.856;2023-04-03T02:36:08;3.60;99.90
6333;DHT22;3199;49.102;8.856;2023-04-03T02:38:34;3.60;99.90
6333;DHT22;3199;49.102;8.856;2023-04-03T02:41:08;3.60;99.90
6333;DHT22;3199;49.102;8.856;2023-04-03T02:43:34;3.70;99.90
6333;DHT22;3199;49.102;8.856;2023-04-03T02:46:00;3.70;99.90
6333;DHT22;3199;49.102;8.856;2023-04-03T02:48:26;3.60;99.90
6333;DHT22;3199;49.102;8.856;2023-04-03T02:50:51;3.60;99.90
6333;DHT22;3199;49.102;8.856;2023-04-03T02:53:17;3.60;99.90
6333;DHT22;3199;49.102;8.856;2023-04-03T02:55:44;3.60;99.90
6333;DHT22;3199;49.102;8.856;2023-04-03T02:58:10;3.60;99.90
6333;DHT22;3199;49.102;8.856;2023-04-03T03:00:35;3.70;99.90
6333;DHT22;3199;49.102;8.856;2023-04-03T03:03:01;3.60;99.90
6333;DHT22;3199;49.102;8.856;2023-04-03T03:05:27;3.70;99.90
6333;DHT22;3199;49.102;8.856;2023-04-03T03:07:53;3.60;99.90
6333;DHT22;3199;49.102;8.856;2023-04-03T03:10:19;3.70;99.90
6333;DHT22;3199;49.102;8.856;2023-04-03T03:12:44;3.70;99.90
6333;DHT22;3199;49.102;8.856;2023-04-03T03:15:10;3.70;99.90
6333;DHT22;3199;49.102;8.856;2023-04-03T03:17:36;3.70;99.90
6333;DHT22;3199;49.102;8.856;2023-04-03T03:20:03;3.70;99.90
6333;DHT22;3199;49.102;8.856;2023-04-03T03:22:28;3.70;99.90
6333;DHT22;3199;49.102;8.856;2023-04-03T03:24:54;3.70;99.90
6333;DHT22;3199;49.102;8.856;2023-04-03T03:27:20;3.70;99.90
6333;DHT22;3199;49.102;8.856;2023-04-03T03:29:46;3.70;99.90
6333;DHT22;3199;49.102;8.856;2023-04-03T03:32:12;3.70;99.90
6333;DHT22;3199;49.102;8.856;2023-04-03T03:34:37;3.70;99.90
6333;DHT22;3199;49.102;8.856;2023-04-03T03:37:03;3.70;99.90
6333;DHT22;3199;49.102;8.856;2023-04-03T03:39:29;3.70;99.90
6333;DHT22;3199;49.102;8.856;2023-04-03T03:41:55;3.70;99.90
6333;DHT22;3199;49.102;8.856;2023-04-03T03:44:22;3.70;99.90
6333;DHT22;3199;49.102;8.856;2023-04-03T03:46:47;3.70;99.90
6333;DHT22;3199;49.102;8.856;2023-04-03T03:49:13;3.70;99.90
6333;DHT22;3199;49.102;8.856;2023-04-03T03:51:39;3.80;99.90
6333;DHT22;3199;49.102;8.856;2023-04-03T03:54:05;3.70;99.90
6333;DHT22;3199;49.102;8.856;2023-04-03T03:56:31;3.80;99.90
6333;DHT22;3199;49.102;8.856;2023-04-03T03:58:56;3.80;99.90
6333;DHT22;3199;49.102;8.856;2023-04-03T04:01:23;3.80;99.90
6333;DHT22;3199;49.102;8.856;2023-04-03T04:03:49;3.80;99.90
6333;DHT22;3199;49.102;8.856;2023-04-03T04:06:15;3.70;99.90
6333;DHT22;3199;49.102;8.856;2023-04-03T04:08:41;3.80;99.90
6333;DHT22;3199;49.102;8.856;2023-04-03T04:11:08;3.70;99.90
6333;DHT22;3199;49.102;8.856;2023-04-03T04:13:33;3.70;99.90
6333;DHT22;3199;49.102;8.856;2023-04-03T04:15:59;3.80;99.90
6333;DHT22;3199;49.102;8.856;2023-04-03T04:18:24;4.00;99.90
6333;DHT22;3199;49.102;8.856;2023-04-03T04:20:50;4.00;99.90
6333;DHT22;3199;49.102;8.856;2023-04-03T04:23:17;3.90;99.90
6333;DHT22;3199;49.102;8.856;2023-04-03T04:25:45;3.80;99.90
6333;DHT22;3199;49.102;8.856;2023-04-03T04:28:11;3.70;99.90
6333;DHT22;3199;49.102;8.856;2023-04-03T04:30:36;3.60;99.90
6333;DHT22;3199;49.102;8.856;2023-04-03T04:33:02;3.50;99.90
6333;DHT22;3199;49.102;8.856;2023-04-03T04:35:28;3.40;99.90
6333;DHT22;3199;49.102;8.856;2023-04-03T04:37:54;3.40;99.90
6333;DHT22;3199;49.102;8.856;2023-04-03T04:40:19;3.30;99.90
6333;DHT22;3199;49.102;8.856;2023-04-03T04:42:45;3.20;99.90
6333;DHT22;3199;49.102;8.856;2023-04-03T04:45:10;3.20;99.90
6333;DHT22;3199;49.102;8.856;2023-04-03T04:47:36;3.10;99.90
6333;DHT22;3199;49.102;8.856;2023-04-03T04:50:01;3.00;99.90
6333;DHT22;3199;49.102;8.856;2023-04-03T04:52:27;2.90;99.90
6333;DHT22;3199;49.102;8.856;2023-04-03T04:54:53;2.80;99.90
6333;DHT22;3199;49.102;8.856;2023-04-03T04:57:18;2.80;99.90
6333;DHT22;3199;49.102;8.856;2023-04-03T04:59:44;2.80;99.90
6333;DHT22;3199;49.102;8.856;2023-04-03T05:02:09;2.80;99.90
6333;DHT22;3199;49.102;8.856;2023-04-03T05:04:35;2.80;99.90
6333;DHT22;3199;49.102;8.856;2023-04-03T05:07:00;2.80;99.90
6333;DHT22;3199;49.102;8.856;2023-04-03T05:09:26;2.70;99.90
6333;DHT22;3199;49.102;8.856;2023-04-03T05:11:51;2.70;99.90
6333;DHT22;3199;49.102;8.856;2023-04-03T05:14:17;2.60;99.90
6333;DHT22;3199;49.102;8.856;2023-04-03T05:16:43;2.60;99.90
6333;DHT22;3199;49.102;8.856;2023-04-03T05:19:08;2.60;99.90
6333;DHT22;3199;49.102;8.856;2023-04-03T05:21:34;2.60;99.90
6333;DHT22;3199;49.102;8.856;2023-04-03T05:24:00;2.60;99.90
6333;DHT22;3199;49.102;8.856;2023-04-03T05:26:28;2.60;99.90
6333;DHT22;3199;49.102;8.856;2023-04-03T05:28:54;2.60;99.90
6333;DHT22;3199;49.102;8.856;2023-04-03T05:31:19;2.60;99.90
6333;DHT22;3199;49.102;8.856;2023-04-03T05:33:45;2.70;99.90
6333;DHT22;3199;49.102;8.856;2023-04-03T05:36:11;2.70;99.90
6333;DHT22;3199;49.102;8.856;2023-04-03T05:38:38;2.80;99.90
6333;DHT22;3199;49.102;8.856;2023-04-03T05:41:04;2.80;99.90
6333;DHT22;3199;49.102;8.856;2023-04-03T05:43:29;2.80;99.90
6333;DHT22;3199;49.102;8.856;2023-04-03T05:45:55;2.80;99.90
6333;DHT22;3199;49.102;8.856;2023-04-03T05:48:20;2.90;99.90
6333;DHT22;3199;49.102;8.856;2023-04-03T05:50:46;2.90;99.90
6333;DHT22;3199;49.102;8.856;2023-04-03T05:53:22;2.90;99.90
6333;DHT22;3199;49.102;8.856;2023-04-03T05:55:50;3.00;99.90
6333;DHT22;3199;49.102;8.856;2023-04-03T05:58:15;3.00;99.90
6333;DHT22;3199;49.102;8.856;2023-04-03T06:00:41;3.00;99.90
6333;DHT22;3199;49.102;8.856;2023-04-03T06:03:06;3.10;99.90
6333;DHT22;3199;49.102;8.856;2023-04-03T06:05:32;3.10;99.90
6333;DHT22;3199;49.102;8.856;2023-04-03T06:07:58;3.20;99.90
6333;DHT22;3199;49.102;8.856;2023-04-03T06:10:23;3.30;99.90
6333;DHT22;3199;49.102;8.856;2023-04-03T06:12:50;3.40;99.90
6333;DHT22;3199;49.102;8.856;2023-04-03T06:15:15;3.40;99.90
6333;DHT22;3199;49.102;8.856;2023-04-03T06:17:42;3.50;99.90
6333;DHT22;3199;49.102;8.856;2023-04-03T06:20:08;3.60;99.90
6333;DHT22;3199;49.102;8.856;2023-04-03T06:22:35;3.80;99.90
6333;DHT22;3199;49.102;8.856;2023-04-03T06:25:01;3.90;99.90
6333;DHT22;3199;49.102;8.856;2023-04-03T06:27:27;4.10;99.90
6333;DHT22;3199;49.102;8.856;2023-04-03T06:29:52;4.20;99.90
6333;DHT22;3199;49.102;8.856;2023-04-03T06:32:18;4.30;99.90
6333;DHT22;3199;49.102;8.856;2023-04-03T06:34:43;4.50;99.90
6333;DHT22;3199;49.102;8.856;2023-04-03T06:37:20;4.60;99.90
6333;DHT22;3199;49.102;8.856;2023-04-03T06:39:46;4.80;99.90
6333;DHT22;3199;49.102;8.856;2023-04-03T06:42:12;5.10;99.90
6333;DHT22;3199;49.102;8.856;2023-04-03T06:44:38;5.40;99.90
6333;DHT22;3199;49.102;8.856;2023-04-03T06:47:04;5.50;99.90
6333;DHT22;3199;49.102;8.856;2023-04-03T06:49:30;5.50;99.90
6333;DHT22;3199;49.102;8.856;2023-04-03T06:51:55;5.60;99.90
6333;DHT22;3199;49.102;8.856;2023-04-03T06:54:21;5.70;99.90
6333;DHT22;3199;49.102;8.856;2023-04-03T06:56:47;5.70;99.90
6333;DHT22;3199;49.102;8.856;2023-04-03T06:59:13;5.80;99.90
6333;DHT22;3199;49.102;8.856;2023-04-03T07:01:40;6.10;99.90
6333;DHT22;3199;49.102;8.856;2023-04-03T07:04:06;6.40;99.90
6333;DHT22;3199;49.102;8.856;2023-04-03T07:06:31;6.80;99.90
6333;DHT22;3199;49.102;8.856;2023-04-03T07:08:59;7.60;99.90
6333;DHT22;3199;49.102;8.856;2023-04-03T07:11:24;8.40;97.80
6333;DHT22;3199;49.102;8.856;2023-04-03T07:13:52;8.70;96.40
6333;DHT22;3199;49.102;8.856;2023-04-03T07:16:18;8.90;96.20
6333;DHT22;3199;49.102;8.856;2023-04-03T07:18:45;9.20;95.10
6333;DHT22;3199;49.102;8.856;2023-04-03T07:21:11;9.30;94.00
6333;DHT22;3199;49.102;8.856;2023-04-03T07:23:37;8.80;93.40
6333;DHT22;3199;49.102;8.856;2023-04-03T07:26:02;8.40;94.10
6333;DHT22;3199;49.102;8.856;2023-04-03T07:28:28;8.50;94.90
6333;DHT22;3199;49.102;8.856;2023-04-03T07:31:03;8.40;94.50
6333;DHT22;3199;49.102;8.856;2023-04-03T07:33:30;8.50;94.50
6333;DHT22;3199;49.102;8.856;2023-04-03T07:35:56;8.40;94.10
6333;DHT22;3199;49.102;8.856;2023-04-03T07:38:21;8.30;94.50
6333;DHT22;3199;49.102;8.856;2023-04-03T07:40:48;8.70;95.30
6333;DHT22;3199;49.102;8.856;2023-04-03T07:43:15;9.40;93.90
6333;DHT22;3199;49.102;8.856;2023-04-03T07:45:41;9.70;93.00
6333;DHT22;3199;49.102;8.856;2023-04-03T07:48:07;9.90;92.80
6333;DHT22;3199;49.102;8.856;2023-04-03T07:50:33;10.30;91.00
6333;DHT22;3199;49.102;8.856;2023-04-03T07:52:58;10.10;90.70
6333;DHT22;3199;49.102;8.856;2023-04-03T07:55:25;9.90;91.70
6333;DHT22;3199;49.102;8.856;2023-04-03T07:57:51;10.00;90.80
6333;DHT22;3199;49.102;8.856;2023-04-03T08:00:17;9.70;90.40
6333;DHT22;3199;49.102;8.856;2023-04-03T08:02:43;9.20;90.30
6333;DHT22;3199;49.102;8.856;2023-04-03T08:05:10;9.00;91.20
6333;DHT22;3199;49.102;8.856;2023-04-03T08:07:37;8.70;92.30
6333;DHT22;3199;49.102;8.856;2023-04-03T08:10:03;8.60;92.40
6333;DHT22;3199;49.102;8.856;2023-04-03T08:12:29;8.40;92.20
6333;DHT22;3199;49.102;8.856;2023-04-03T08:14:55;8.00;92.20
6333;DHT22;3199;49.102;8.856;2023-04-03T08:17:21;7.70;93.30
6333;DHT22;3199;49.102;8.856;2023-04-03T08:19:46;7.50;93.20
6333;DHT22;3199;49.102;8.856;2023-04-03T08:22:12;7.40;93.60
6333;DHT22;3199;49.102;8.856;2023-04-03T08:24:37;7.20;93.20
6333;DHT22;3199;49.102;8.856;2023-04-03T08:27:03;7.30;93.10
6333;DHT22;3199;49.102;8.856;2023-04-03T08:29:29;7.80;93.60
6333;DHT22;3199;49.102;8.856;2023-04-03T08:31:55;8.40;91.70
6333;DHT22;3199;49.102;8.856;2023-04-03T08:34:20;8.60;90.10
6333;DHT22;3199;49.102;8.856;2023-04-03T08:36:46;8.70;89.80
6333;DHT22;3199;49.102;8.856;2023-04-03T08:39:12;9.00;88.10
6333;DHT22;3199;49.102;8.856;2023-04-03T08:41:45;9.20;86.40
6333;DHT22;3199;49.102;8.856;2023-04-03T08:47:04;9.60;86.50
6333;DHT22;3199;49.102;8.856;2023-04-03T08:55:10;10.50;79.40
6333;DHT22;3199;49.102;8.856;2023-04-03T08:57:44;10.60;79.50
6333;DHT22;3199;49.102;8.856;2023-04-03T09:02:51;11.10;77.80
6333;DHT22;3199;49.102;8.856;2023-04-03T09:05:42;11.30;76.90
6333;DHT22;3199;49.102;8.856;2023-04-03T09:10:49;11.40;76.50
6333;DHT22;3199;49.102;8.856;2023-04-03T09:13:28;11.40;73.60
6333;DHT22;3199;49.102;8.856;2023-04-03T09:15:57;11.20;72.30
6333;DHT22;3199;49.102;8.856;2023-04-03T09:18:30;10.90;73.10
6333;DHT22;3199;49.102;8.856;2023-04-03T09:23:50;10.90;75.10
6333;DHT22;3199;49.102;8.856;2023-04-03T09:29:17;11.10;73.50
6333;DHT22;3199;49.102;8.856;2023-04-03T09:31:44;11.00;73.70
6333;DHT22;3199;49.102;8.856;2023-04-03T09:34:23;11.10;73.30
6333;DHT22;3199;49.102;8.856;2023-04-03T09:36:53;11.10;73.20
6333;DHT22;3199;49.102;8.856;2023-04-03T09:39:22;11.20;72.00
6333;DHT22;3199;49.102;8.856;2023-04-03T09:42:01;11.10;72.10
6333;DHT22;3199;49.102;8.856;2023-04-03T09:44:38;11.40;71.80
6333;DHT22;3199;49.102;8.856;2023-04-03T09:47:29;11.30;71.50
6333;DHT22;3199;49.102;8.856;2023-04-03T09:52:46;11.50;68.70
6333;DHT22;3199;49.102;8.856;2023-04-03T09:55:20;11.20;70.00
6333;DHT22;3199;49.102;8.856;2023-04-03T09:57:53;11.20;69.20
6333;DHT22;3199;49.102;8.856;2023-04-03T10:00:34;11.30;70.30
6333;DHT22;3199;49.102;8.856;2023-04-03T10:03:00;11.30;70.10
6333;DHT22;3199;49.102;8.856;2023-04-03T10:05:33;11.10;68.90
6333;DHT22;3199;49.102;8.856;2023-04-03T10:10:43;10.90;72.20
6333;DHT22;3199;49.102;8.856;2023-04-03T10:13:17;10.70;70.30
6333;DHT22;3199;49.102;8.856;2023-04-03T10:15:51;10.40;69.90
6333;DHT22;3199;49.102;8.856;2023-04-03T10:18:26;10.30;72.80
6333;DHT22;3199;49.102;8.856;2023-04-03T10:21:07;10.10;70.70
6333;DHT22;3199;49.102;8.856;2023-04-03T10:23:45;9.90;73.30
6333;DHT22;3199;49.102;8.856;2023-04-03T10:29:02;9.60;74.60
6333;DHT22;3199;49.102;8.856;2023-04-03T10:31:46;9.40;75.20
6333;DHT22;3199;49.102;8.856;2023-04-03T10:34:31;9.20;72.20
6333;DHT22;3199;49.102;8.856;2023-04-03T10:37:27;9.00;73.90
6333;DHT22;3199;49.102;8.856;2023-04-03T10:39:59;8.90;74.80
6333;DHT22;3199;49.102;8.856;2023-04-03T10:42:39;8.90;75.40
6333;DHT22;3199;49.102;8.856;2023-04-03T10:48:20;8.90;73.70
6333;DHT22;3199;49.102;8.856;2023-04-03T10:50:58;9.00;72.90
6333;DHT22;3199;49.102;8.856;2023-04-03T10:53:41;9.00;72.80
6333;DHT22;3199;49.102;8.856;2023-04-03T10:56:30;9.00;72.50
6333;DHT22;3199;49.102;8.856;2023-04-03T10:59:08;8.90;73.20
6333;DHT22;3199;49.102;8.856;2023-04-03T11:01:40;8.90;74.60
6333;DHT22;3199;49.102;8.856;2023-04-03T11:04:09;8.80;75.80
6333;DHT22;3199;49.102;8.856;2023-04-03T11:06:44;8.80;76.60
6333;DHT22;3199;49.102;8.856;2023-04-03T11:09:27;8.90;76.10
6333;DHT22;3199;49.102;8.856;2023-04-03T11:12:02;9.00;72.50
6333;DHT22;3199;49.102;8.856;2023-04-03T11:14:32;9.00;71.90
6333;DHT22;3199;49.102;8.856;2023-04-03T11:17:15;8.90;72.80
6333;DHT22;3199;49.102;8.856;2023-04-03T11:23:28;8.60;72.30
6333;DHT22;3199;49.102;8.856;2023-04-03T11:25:54;8.50;74.00
6333;DHT22;3199;49.102;8.856;2023-04-03T11:28:21;8.60;74.30
6333;DHT22;3199;49.102;8.856;2023-04-03T11:31:07;8.60;73.80
6333;DHT22;3199;49.102;8.856;2023-04-03T11:36:29;8.90;74.50
6333;DHT22;3199;49.102;8.856;2023-04-03T11:38:59;8.90;73.40
6333;DHT22;3199;49.102;8.856;2023-04-03T11:41:31;8.90;72.90
6333;DHT22;3199;49.102;8.856;2023-04-03T11:44:25;8.90;70.70
6333;DHT22;3199;49.102;8.856;2023-04-03T11:46:59;9.00;70.20
6333;DHT22;3199;49.102;8.856;2023-04-03T11:49:51;9.10;70.80
6333;DHT22;3199;49.102;8.856;2023-04-03T12:16:32;8.60;71.40
6333;DHT22;3199;49.102;8.856;2023-04-03T12:35:14;8.70;69.50
6333;DHT22;3199;49.102;8.856;2023-04-03T12:40:31;9.00;69.80
6333;DHT22;3199;49.102;8.856;2023-04-03T12:48:37;9.20;66.40
6333;DHT22;3199;49.102;8.856;2023-04-03T12:51:03;9.20;65.10
6333;DHT22;3199;49.102;8.856;2023-04-03T12:53:35;9.10;66.50
6333;DHT22;3199;49.102;8.856;2023-04-03T12:56:27;9.20;66.60
6333;DHT22;3199;49.102;8.856;2023-04-03T12:58:56;9.30;66.70
6333;DHT22;3199;49.102;8.856;2023-04-03T13:01:25;9.10;65.90
6333;DHT22;3199;49.102;8.856;2023-04-03T13:03:55;9.00;65.40
6333;DHT22;3199;49.102;8.856;2023-04-03T13:06:28;9.00;65.40
6333;DHT22;3199;49.102;8.856;2023-04-03T13:09:00;8.90;66.20
6333;DHT22;3199;49.102;8.856;2023-04-03T13:11:30;8.90;67.20
6333;DHT22;3199;49.102;8.856;2023-04-03T13:16:24;8.80;66.80
6333;DHT22;3199;49.102;8.856;2023-04-03T13:18:52;8.80;66.20
6333;DHT22;3199;49.102;8.856;2023-04-03T13:21:21;8.80;67.10
6333;DHT22;3199;49.102;8.856;2023-04-03T13:23:50;8.80;66.70
6333;DHT22;3199;49.102;8.856;2023-04-03T13:26:18;8.80;65.30
6333;DHT22;3199;49.102;8.856;2023-04-03T13:28:45;8.80;63.60
6333;DHT22;3199;49.102;8.856;2023-04-03T13:33:56;8.90;64.50
6333;DHT22;3199;49.102;8.856;2023-04-03T13:36:29;9.00;64.40
6333;DHT22;3199;49.102;8.856;2023-04-03T13:39:01;9.00;62.50
6333;DHT22;3199;49.102;8.856;2023-04-03T13:43:55;9.00;66.40
6333;DHT22;3199;49.102;8.856;2023-04-03T13:46:25;9.00;65.90
6333;DHT22;3199;49.102;8.856;2023-04-03T13:48:53;9.00;66.70
6333;DHT22;3199;49.102;8.856;2023-04-03T13:51:25;9.00;67.10
6333;DHT22;3199;49.102;8.856;2023-04-03T13:54:00;8.80;65.10
6333;DHT22;3199;49.102;8.856;2023-04-03T13:56:35;8.70;65.20
6333;DHT22;3199;49.102;8.856;2023-04-03T14:01:46;8.80;65.30
6333;DHT22;3199;49.102;8.856;2023-04-03T14:04:20;8.80;64.70
6333;DHT22;3199;49.102;8.856;2023-04-03T14:06:47;8.80;63.20
6333;DHT22;3199;49.102;8.856;2023-04-03T14:09:14;8.80;64.50
6333;DHT22;3199;49.102;8.856;2023-04-03T14:11:41;8.90;65.30
6333;DHT22;3199;49.102;8.856;2023-04-03T14:14:13;9.00;65.00
6333;DHT22;3199;49.102;8.856;2023-04-03T14:16:41;9.00;65.40
6333;DHT22;3199;49.102;8.856;2023-04-03T14:19:16;9.00;65.70
6333;DHT22;3199;49.102;8.856;2023-04-03T14:21:42;9.00;65.50
6333;DHT22;3199;49.102;8.856;2023-04-03T14:24:08;8.90;65.10
6333;DHT22;3199;49.102;8.856;2023-04-03T14:26:33;8.80;63.30
6333;DHT22;3199;49.102;8.856;2023-04-03T14:28:59;8.70;61.90
6333;DHT22;3199;49.102;8.856;2023-04-03T14:31:24;8.60;61.80
6333;DHT22;3199;49.102;8.856;2023-04-03T14:33:50;8.50;61.70
6333;DHT22;3199;49.102;8.856;2023-04-03T14:36:27;8.50;61.80
6333;DHT22;3199;49.102;8.856;2023-04-03T14:38:53;8.60;62.70
6333;DHT22;3199;49.102;8.856;2023-04-03T14:41:22;8.80;61.10
6333;DHT22;3199;49.102;8.856;2023-04-03T14:43:49;8.90;62.70
6333;DHT22;3199;49.102;8.856;2023-04-03T14:46:22;8.90;62.00
6333;DHT22;3199;49.102;8.856;2023-04-03T14:48:49;8.80;62.90
6333;DHT22;3199;49.102;8.856;2023-04-03T14:51:15;8.70;63.00
6333;DHT22;3199;49.102;8.856;2023-04-03T14:53:42;8.60;62.70
6333;DHT22;3199;49.102;8.856;2023-04-03T14:56:27;8.60;61.40
6333;DHT22;3199;49.102;8.856;2023-04-03T14:58:59;8.50;59.60
6333;DHT22;3199;49.102;8.856;2023-04-03T15:01:25;8.60;60.90
6333;DHT22;3199;49.102;8.856;2023-04-03T15:03:51;8.70;60.20
6333;DHT22;3199;49.102;8.856;2023-04-03T15:06:16;8.70;59.60
6333;DHT22;3199;49.102;8.856;2023-04-03T15:08:43;8.70;60.10
6333;DHT22;3199;49.102;8.856;2023-04-03T15:11:13;8.70;60.40
6333;DHT22;3199;49.102;8.856;2023-04-03T15:13:39;8.50;60.70
6333;DHT22;3199;49.102;8.856;2023-04-03T15:16:06;8.30;60.70
6333;DHT22;3199;49.102;8.856;2023-04-03T15:18:38;8.10;61.80
6333;DHT22;3199;49.102;8.856;2023-04-03T15:21:04;8.10;63.40
6333;DHT22;3199;49.102;8.856;2023-04-03T15:23:30;8.10;62.00
6333;DHT22;3199;49.102;8.856;2023-04-03T15:25:56;8.20;61.90
6333;DHT22;3199;49.102;8.856;2023-04-03T15:28:32;8.20;61.70
6333;DHT22;3199;49.102;8.856;2023-04-03T15:30:59;8.30;62.60
6333;DHT22;3199;49.102;8.856;2023-04-03T15:33:25;8.20;59.90
6333;DHT22;3199;49.102;8.856;2023-04-03T15:35:51;8.20;60.40
6333;DHT22;3199;49.102;8.856;2023-04-03T15:38:18;8.10;61.20
6333;DHT22;3199;49.102;8.856;2023-04-03T15:40:43;8.10;62.10
6333;DHT22;3199;49.102;8.856;2023-04-03T15:43:09;8.10;60.90
6333;DHT22;3199;49.102;8.856;2023-04-03T15:45:36;8.10;61.50
6333;DHT22;3199;49.102;8.856;2023-04-03T15:48:04;8.20;62.40
6333;DHT22;3199;49.102;8.856;2023-04-03T15:50:31;8.40;62.30
6333;DHT22;3199;49.102;8.856;2023-04-03T15:52:57;8.40;62.90
6333;DHT22;3199;49.102;8.856;2023-04-03T15:55:28;8.40;62.40
6333;DHT22;3199;49.102;8.856;2023-04-03T15:57:54;8.40;62.50
6333;DHT22;3199;49.102;8.856;2023-04-03T16:00:20;8.30;61.10
6333;DHT22;3199;49.102;8.856;2023-04-03T16:02:47;8.20;60.20
6333;DHT22;3199;49.102;8.856;2023-04-03T16:05:15;8.00;60.60
6333;DHT22;3199;49.102;8.856;2023-04-03T16:07:42;7.90;60.80
6333;DHT22;3199;49.102;8.856;2023-04-03T16:10:09;7.90;61.60
6333;DHT22;3199;49.102;8.856;2023-04-03T16:12:35;8.00;62.40
6333;DHT22;3199;49.102;8.856;2023-04-03T16:15:02;8.00;62.90
6333;DHT22;3199;49.102;8.856;2023-04-03T16:17:28;8.00;62.20
6333;DHT22;3199;49.102;8.856;2023-04-03T16:19:56;8.00;60.60
6333;DHT22;3199;49.102;8.856;2023-04-03T16:22:23;8.00;61.30
6333;DHT22;3199;49.102;8.856;2023-04-03T16:24:50;8.00;62.30
6333;DHT22;3199;49.102;8.856;2023-04-03T16:27:16;7.90;60.90
6333;DHT22;3199;49.102;8.856;2023-04-03T16:29:42;7.80;60.70
6333;DHT22;3199;49.102;8.856;2023-04-03T16:32:08;7.80;61.00
6333;DHT22;3199;49.102;8.856;2023-04-03T16:34:33;7.70;61.20
6333;DHT22;3199;49.102;8.856;2023-04-03T16:36:59;7.60;61.90
6333;DHT22;3199;49.102;8.856;2023-04-03T16:39:25;7.60;62.00
6333;DHT22;3199;49.102;8.856;2023-04-03T16:41:50;7.60;62.20
6333;DHT22;3199;49.102;8.856;2023-04-03T16:44:16;7.60;63.20
6333;DHT22;3199;49.102;8.856;2023-04-03T16:46:42;7.50;64.00
6333;DHT22;3199;49.102;8.856;2023-04-03T16:49:07;7.60;64.20
6333;DHT22;3199;49.102;8.856;2023-04-03T16:51:33;7.50;62.50
6333;DHT22;3199;49.102;8.856;2023-04-03T16:53:58;7.50;62.30
6333;DHT22;3199;49.102;8.856;2023-04-03T16:56:24;7.40;62.60
6333;DHT22;3199;49.102;8.856;2023-04-03T16:58:52;7.40;63.00
6333;DHT22;3199;49.102;8.856;2023-04-03T17:01:20;7.30;65.00
6333;DHT22;3199;49.102;8.856;2023-04-03T17:03:45;7.30;63.80
6333;DHT22;3199;49.102;8.856;2023-04-03T17:06:12;7.30;62.80
6333;DHT22;3199;49.102;8.856;2023-04-03T17:08:42;7.20;63.10
6333;DHT22;3199;49.102;8.856;2023-04-03T17:11:08;7.20;63.10
6333;DHT22;3199;49.102;8.856;2023-04-03T17:13:34;7.10;62.30
6333;DHT22;3199;49.102;8.856;2023-04-03T17:16:00;7.10;62.50
6333;DHT22;3199;49.102;8.856;2023-04-03T17:18:28;7.10;61.90
6333;DHT22;3199;49.102;8.856;2023-04-03T17:20:54;7.00;61.90
6333;DHT22;3199;49.102;8.856;2023-04-03T17:23:20;7.00;63.00
6333;DHT22;3199;49.102;8.856;2023-04-03T17:25:46;7.00;62.40
6333;DHT22;3199;49.102;8.856;2023-04-03T17:28:11;6.90;62.00
6333;DHT22;3199;49.102;8.856;2023-04-03T17:30:37;6.80;62.90
6333;DHT22;3199;49.102;8.856;2023-04-03T17:33:03;6.80;64.00
6333;DHT22;3199;49.102;8.856;2023-04-03T17:35:29;6.90;66.10
6333;DHT22;3199;49.102;8.856;2023-04-03T17:37:55;6.80;64.30
6333;DHT22;3199;49.102;8.856;2023-04-03T17:40:21;6.80;64.20
6333;DHT22;3199;49.102;8.856;2023-04-03T17:42:46;6.70;64.10
6333;DHT22;3199;49.102;8.856;2023-04-03T17:45:12;6.60;64.10
6333;DHT22;3199;49.102;8.856;2023-04-03T17:47:37;6.50;64.00
6333;DHT22;3199;49.102;8.856;2023-04-03T17:50:03;6.50;64.50
6333;DHT22;3199;49.102;8.856;2023-04-03T17:52:29;6.40;64.00
6333;DHT22;3199;49.102;8.856;2023-04-03T17:54:56;6.30;63.80
6333;DHT22;3199;49.102;8.856;2023-04-03T17:57:21;6.30;64.50
6333;DHT22;3199;49.102;8.856;2023-04-03T17:59:47;6.20;64.40
6333;DHT22;3199;49.102;8.856;2023-04-03T18:02:13;6.20;64.00
6333;DHT22;3199;49.102;8.856;2023-04-03T18:04:38;6.10;64.30
6333;DHT22;3199;49.102;8.856;2023-04-03T18:07:04;6.10;64.50
6333;DHT22;3199;49.102;8.856;2023-04-03T18:09:35;6.00;65.00